createdAt,value
2023-03-02T00:00:24.380Z,-0.05
2023-03-02T00:01:24.398Z,-7.46
2023-03-02T00:02:24.546Z,1.56
2023-03-02T00:03:24.407Z,-5.53
2023-03-02T00:04:24.340Z,-4.88
2023-03-02T00:05:24.365Z,-0.37
2023-03-02T00:06:24.317Z,0.27
2023-03-02T00:07:24.340Z,1.56
2023-03-02T00:08:24.320Z,-0.37
2023-03-02T00:09:24.332Z,-3.92
2023-03-02T00:10:24.276Z,-0.37
2023-03-02T00:11:24.277Z,-1.66
2023-03-02T00:12:24.295Z,-0.05
2023-03-02T00:13:24.271Z,-0.05
2023-03-02T00:14:24.232Z,0.27
2023-03-02T00:15:24.285Z,5.43
2023-03-02T00:16:24.291Z,2.85
2023-03-02T00:17:24.238Z,-0.05
2023-03-02T00:18:24.216Z,-0.37
2023-03-02T00:19:24.194Z,-0.05
2023-03-02T00:20:24.180Z,-4.56
2023-03-02T00:21:24.180Z,4.46
2023-03-02T00:22:24.150Z,-0.69
2023-03-02T00:23:24.171Z,0.60
2023-03-02T00:24:24.161Z,5.43
2023-03-02T00:25:24.165Z,-0.37
2023-03-02T00:26:24.133Z,-0.05
2023-03-02T00:27:24.118Z,4.79
2023-03-02T00:28:24.091Z,-0.05
2023-03-02T00:29:24.096Z,-0.69
2023-03-02T00:30:24.073Z,-0.37
2023-03-02T00:31:24.146Z,-4.88
2023-03-02T00:32:24.086Z,-0.37
2023-03-02T00:33:24.071Z,-6.17
2023-03-02T00:34:24.040Z,-1.02
2023-03-02T00:35:24.063Z,-0.37
2023-03-02T00:36:24.008Z,-0.69
2023-03-02T00:37:24.019Z,-0.69
2023-03-02T00:38:24.003Z,5.11
2023-03-02T00:39:23.978Z,6.40
2023-03-02T00:40:23.957Z,-1.02
2023-03-02T00:41:23.957Z,-4.56
2023-03-02T00:42:23.945Z,-0.69
2023-03-02T00:43:23.957Z,-0.69
2023-03-02T00:44:23.910Z,4.79
2023-03-02T00:45:23.918Z,-0.69
2023-03-02T00:46:23.977Z,-0.69
2023-03-02T00:47:23.909Z,-1.02
2023-03-02T00:48:23.876Z,-2.63
2023-03-02T00:49:23.907Z,2.21
2023-03-02T00:50:23.857Z,-10.36
2023-03-02T00:51:23.869Z,5.11
2023-03-02T00:52:23.819Z,4.14
2023-03-02T00:53:23.836Z,-1.34
2023-03-02T00:54:23.838Z,-5.85
2023-03-02T00:55:23.814Z,-3.59
2023-03-02T00:56:23.799Z,-0.37
2023-03-02T00:57:23.798Z,4.46
2023-03-02T00:58:23.763Z,-0.69
2023-03-02T00:59:23.769Z,4.14
2023-03-02T01:00:23.738Z,0.92
2023-03-02T01:01:23.755Z,-1.34
2023-03-02T01:02:23.913Z,-3.27
2023-03-02T01:03:23.811Z,-1.02
2023-03-02T01:04:23.702Z,-1.66
2023-03-02T01:05:23.720Z,-1.02
2023-03-02T01:06:23.682Z,-1.66
2023-03-02T01:07:23.685Z,-1.66
2023-03-02T01:08:23.687Z,-1.34
2023-03-02T01:09:23.693Z,-1.02
2023-03-02T01:10:23.652Z,-1.98
2023-03-02T01:11:23.647Z,-0.37
2023-03-02T01:12:23.633Z,-1.66
2023-03-02T01:13:23.652Z,-7.78
2023-03-02T01:14:23.617Z,-6.82
2023-03-02T01:15:23.606Z,-4.24
2023-03-02T01:16:23.653Z,-1.34
2023-03-02T01:17:23.590Z,6.72
2023-03-02T01:18:23.555Z,-2.30
2023-03-02T01:19:23.571Z,-2.30
2023-03-02T01:20:23.562Z,-1.66
2023-03-02T01:21:23.556Z,-1.02
2023-03-02T01:22:23.548Z,-2.30
2023-03-02T01:23:23.558Z,-1.98
2023-03-02T01:24:23.524Z,-2.30
2023-03-02T01:25:23.506Z,-6.49
2023-03-02T01:26:23.513Z,-2.95
2023-03-02T01:27:23.500Z,-2.30
2023-03-02T01:28:23.465Z,-9.07
2023-03-02T01:29:23.478Z,-2.63
2023-03-02T01:30:23.453Z,-1.02
2023-03-02T01:31:23.495Z,-0.37
2023-03-02T01:32:23.518Z,-8.43
2023-03-02T01:33:23.447Z,-3.27
2023-03-02T01:34:23.414Z,6.40
2023-03-02T01:35:23.450Z,-1.98
2023-03-02T01:36:24.016Z,2.53
2023-03-02T01:37:23.408Z,-2.63
2023-03-02T01:38:23.383Z,2.85
2023-03-02T01:39:23.394Z,-2.63
2023-03-02T01:43:55.922Z,3.82
2023-03-02T01:44:56.993Z,-2.30
2023-03-02T01:45:56.936Z,-10.04
2023-03-02T01:46:56.935Z,-1.98
2023-03-02T01:47:56.881Z,-1.66
2023-03-02T01:48:56.881Z,-7.78
2023-03-02T01:49:56.901Z,2.53
2023-03-02T01:50:56.881Z,-1.98
2023-03-02T01:51:56.855Z,-7.78
2023-03-02T01:52:56.865Z,-8.43
2023-03-02T01:53:56.821Z,-2.95
2023-03-02T01:54:56.846Z,-6.17
2023-03-02T01:55:56.801Z,-1.02
2023-03-02T01:56:56.829Z,-6.82
2023-03-02T01:57:56.829Z,-9.07
2023-03-02T01:58:56.789Z,-1.98
2023-03-02T01:59:56.763Z,-1.98
2023-03-02T02:00:56.908Z,-2.30
2023-03-02T02:01:56.746Z,-2.30
2023-03-02T02:02:56.767Z,-2.30
2023-03-02T02:03:56.784Z,-7.46
2023-03-02T02:04:56.725Z,-2.95
2023-03-02T02:05:56.727Z,-7.46
2023-03-02T02:06:56.719Z,2.85
2023-03-02T02:07:56.700Z,-2.95
2023-03-02T02:08:56.709Z,1.56
2023-03-02T02:09:56.682Z,-2.63
2023-03-02T02:10:56.703Z,-2.30
2023-03-02T02:11:56.652Z,-2.30
2023-03-02T02:12:56.675Z,-4.88
2023-03-02T02:13:56.669Z,-2.63
2023-03-02T02:14:56.637Z,-6.82
2023-03-02T02:15:56.634Z,-2.63
2023-03-02T02:16:56.694Z,-2.30
2023-03-02T02:17:56.580Z,-2.63
2023-03-02T02:18:56.602Z,-1.98
2023-03-02T02:19:56.575Z,-2.30
2023-03-02T02:20:56.582Z,-1.98
2023-03-02T02:21:56.569Z,-2.30
2023-03-02T02:22:56.582Z,-2.63
2023-03-02T02:23:56.524Z,-3.27
2023-03-02T02:24:56.580Z,-6.82
2023-03-02T02:25:56.513Z,-2.30
2023-03-02T02:26:56.524Z,2.53
2023-03-02T02:27:56.490Z,-7.14
2023-03-02T02:28:56.501Z,-2.63
2023-03-02T02:29:56.476Z,-6.82
2023-03-02T02:30:56.473Z,-2.30
2023-03-02T02:31:56.598Z,-5.21
2023-03-02T02:32:56.459Z,1.56
2023-03-02T02:33:56.442Z,-8.11
2023-03-02T02:34:56.454Z,-2.30
2023-03-02T02:35:56.466Z,1.56
2023-03-02T02:36:56.430Z,3.82
2023-03-02T02:37:56.391Z,1.24
2023-03-02T02:38:56.441Z,-2.30
2023-03-02T02:39:56.374Z,-2.95
2023-03-02T02:40:56.371Z,-2.63
2023-03-02T02:41:56.338Z,1.56
2023-03-02T02:42:56.345Z,-2.95
2023-03-02T02:43:56.331Z,-2.63
2023-03-02T02:44:56.355Z,-8.11
2023-03-02T02:45:56.345Z,-2.63
2023-03-02T02:46:56.328Z,-2.95
2023-03-02T02:47:56.296Z,-2.30
2023-03-02T02:48:56.289Z,-2.95
2023-03-02T02:49:56.271Z,-8.75
2023-03-02T02:50:56.260Z,-0.37
2023-03-02T02:51:56.247Z,-2.63
2023-03-02T02:52:56.275Z,-3.27
2023-03-02T02:53:56.219Z,-2.95
2023-03-02T02:54:56.255Z,-2.63
2023-03-02T02:55:56.201Z,-2.30
2023-03-02T02:56:56.214Z,1.56
2023-03-02T02:57:56.172Z,-2.30
2023-03-02T02:58:56.194Z,-2.30
2023-03-02T02:59:56.156Z,-9.39
2023-03-02T03:00:56.222Z,-9.39
2023-03-02T03:01:56.141Z,-8.43
2023-03-02T03:02:56.161Z,-0.69
2023-03-02T03:03:56.169Z,-6.82
2023-03-02T03:04:56.144Z,-2.95
2023-03-02T03:05:56.106Z,4.79
2023-03-02T03:06:56.102Z,-2.30
2023-03-02T03:07:56.077Z,-6.49
2023-03-02T03:08:56.093Z,-2.63
2023-03-02T03:09:56.163Z,5.75
2023-03-02T03:10:56.093Z,2.53
2023-03-02T03:11:56.030Z,-1.98
2023-03-02T03:12:56.044Z,-5.85
2023-03-02T03:13:56.012Z,-1.98
2023-03-02T03:14:56.061Z,-1.98
2023-03-02T03:15:56.002Z,-2.30
2023-03-02T03:16:56.260Z,3.82
2023-03-02T03:17:56.026Z,-1.66
2023-03-02T03:18:56.020Z,0.27
2023-03-02T03:19:55.985Z,-1.66
2023-03-02T03:20:55.969Z,-6.82
2023-03-02T03:21:55.939Z,-2.95
2023-03-02T03:22:55.962Z,-0.05
2023-03-02T03:23:55.919Z,4.14
2023-03-02T03:24:55.916Z,-2.30
2023-03-02T03:25:55.893Z,-7.46
2023-03-02T03:26:55.926Z,-9.39
2023-03-02T03:27:55.867Z,-1.66
2023-03-02T03:28:55.881Z,-2.30
2023-03-02T03:29:55.862Z,1.56
2023-03-02T03:30:55.898Z,-1.98
2023-03-02T03:31:55.898Z,-1.98
2023-03-02T03:32:55.845Z,-7.14
2023-03-02T03:33:55.800Z,-2.30
2023-03-02T03:34:55.842Z,2.21
2023-03-02T03:35:55.876Z,-2.30
2023-03-02T03:36:55.814Z,2.85
2023-03-02T03:37:55.780Z,-1.34
2023-03-02T03:38:55.762Z,-2.30
2023-03-02T03:39:55.750Z,-2.30
2023-03-02T03:40:55.788Z,-1.98
2023-03-02T03:41:55.714Z,3.82
2023-03-02T03:42:55.750Z,-2.95
2023-03-02T03:43:55.698Z,-2.63
2023-03-02T03:44:55.735Z,-1.98
2023-03-02T03:45:55.707Z,-2.30
2023-03-02T03:46:55.681Z,-9.07
2023-03-02T03:47:55.671Z,-3.59
2023-03-02T03:48:55.691Z,-4.56
2023-03-02T03:49:55.658Z,-2.30
2023-03-02T03:50:55.650Z,-2.30
2023-03-02T03:51:55.617Z,-3.27
2023-03-02T03:52:55.623Z,2.85
2023-03-02T03:53:55.622Z,-2.30
2023-03-02T03:54:55.592Z,-1.98
2023-03-02T03:55:55.624Z,-7.46
2023-03-02T03:56:55.574Z,-2.63
2023-03-02T03:57:55.588Z,-2.63
2023-03-02T03:58:55.551Z,2.21
2023-03-02T03:59:55.570Z,-2.95
2023-03-02T04:00:55.536Z,2.53
2023-03-02T04:01:55.683Z,-9.72
2023-03-02T04:02:55.548Z,2.21
2023-03-02T04:03:55.565Z,-2.30
2023-03-02T04:04:55.506Z,-2.95
2023-03-02T04:05:55.505Z,-7.46
2023-03-02T04:06:55.472Z,-2.30
2023-03-02T04:07:55.497Z,-0.37
2023-03-02T04:08:55.443Z,-2.95
2023-03-02T04:09:55.469Z,2.21
2023-03-02T04:10:55.431Z,-8.11
2023-03-02T04:11:55.443Z,-10.36
2023-03-02T04:12:55.447Z,-2.30
2023-03-02T04:13:55.434Z,-2.95
2023-03-02T04:14:55.385Z,-3.27
2023-03-02T04:15:55.438Z,-3.27
2023-03-02T04:16:55.373Z,-3.27
2023-03-02T04:17:55.374Z,-2.30
2023-03-02T04:18:55.377Z,-2.63
2023-03-02T04:19:55.360Z,1.88
2023-03-02T04:20:55.338Z,-2.95
2023-03-02T04:21:55.345Z,-5.85
2023-03-02T04:22:55.308Z,-2.95
2023-03-02T04:23:55.322Z,-8.11
2023-03-02T04:24:55.283Z,-2.63
2023-03-02T04:25:55.299Z,-2.95
2023-03-02T04:26:55.293Z,3.82
2023-03-02T04:27:55.331Z,2.53
2023-03-02T04:28:55.258Z,-2.30
2023-03-02T04:29:55.269Z,-4.24
2023-03-02T04:30:55.309Z,2.85
2023-03-02T04:31:55.277Z,-2.63
2023-03-02T04:32:55.214Z,-2.63
2023-03-02T04:33:55.231Z,-2.63
2023-03-02T04:34:55.194Z,-3.27
2023-03-02T04:35:55.255Z,-2.95
2023-03-02T04:36:55.189Z,-3.59
2023-03-02T04:37:55.179Z,-6.49
2023-03-02T04:38:55.167Z,-2.30
2023-03-02T04:39:55.168Z,-2.30
2023-03-02T04:40:55.180Z,-2.30
2023-03-02T04:41:55.175Z,-2.63
2023-03-02T04:42:55.118Z,-6.49
2023-03-02T04:43:55.150Z,-0.69
2023-03-02T04:44:55.090Z,4.79
2023-03-02T04:45:55.113Z,-2.30
2023-03-02T04:46:55.161Z,-1.98
2023-03-02T04:47:55.094Z,-2.30
2023-03-02T04:48:55.066Z,-1.98
2023-03-02T04:49:55.072Z,-7.14
2023-03-02T04:50:55.042Z,-2.30
2023-03-02T04:51:55.055Z,-4.88
2023-03-02T04:52:55.023Z,-1.98
2023-03-02T04:53:55.054Z,-1.66
2023-03-02T04:54:55.025Z,-1.98
2023-03-02T04:55:54.996Z,-7.46
2023-03-02T04:56:54.981Z,-1.98
2023-03-02T04:57:55.018Z,-2.63
2023-03-02T04:58:54.960Z,-1.98
2023-03-02T04:59:54.990Z,3.50
2023-03-02T05:00:54.935Z,-2.30
2023-03-02T05:01:55.126Z,2.21
2023-03-02T05:02:54.949Z,-5.53
2023-03-02T05:03:54.943Z,1.24
2023-03-02T05:04:54.970Z,-5.85
2023-03-02T05:05:54.914Z,-2.63
2023-03-02T05:06:54.872Z,-5.53
2023-03-02T05:07:54.914Z,1.24
2023-03-02T05:08:54.867Z,-7.78
2023-03-02T05:09:54.873Z,-1.98
2023-03-02T05:10:54.833Z,-1.66
2023-03-02T05:11:54.859Z,-2.63
2023-03-02T05:12:54.929Z,-1.98
2023-03-02T05:13:54.835Z,-1.98
2023-03-02T05:14:54.787Z,-8.75
2023-03-02T05:15:54.829Z,-1.34
2023-03-02T05:16:54.774Z,-8.11
2023-03-02T05:17:54.812Z,-9.07
2023-03-02T05:18:54.786Z,-1.66
2023-03-02T05:19:54.769Z,-2.63
2023-03-02T05:20:54.740Z,2.85
2023-03-02T05:21:54.737Z,0.27
2023-03-02T05:22:54.736Z,-1.98
2023-03-02T05:23:54.733Z,2.53
2023-03-02T05:24:54.736Z,-2.30
2023-03-02T05:25:54.741Z,-8.11
2023-03-02T05:26:54.680Z,-2.63
2023-03-02T05:27:54.702Z,-2.30
2023-03-02T05:28:54.625Z,0.27
2023-03-02T05:29:54.685Z,-3.27
2023-03-02T05:30:54.627Z,-9.39
2023-03-02T05:31:54.724Z,1.88
2023-03-02T05:32:54.615Z,-2.63
2023-03-02T05:33:54.643Z,-2.30
2023-03-02T05:34:54.592Z,-2.30
2023-03-02T05:35:54.650Z,-2.30
2023-03-02T05:36:54.589Z,-9.07
2023-03-02T05:37:54.595Z,-5.53
2023-03-02T05:38:54.510Z,-2.95
2023-03-02T05:39:54.520Z,3.50
2023-03-02T05:40:54.494Z,-6.17
2023-03-02T05:41:54.502Z,-6.17
2023-03-02T05:42:54.484Z,1.88
2023-03-02T05:43:54.556Z,-2.30
2023-03-02T05:44:54.444Z,-0.05
2023-03-02T05:45:54.472Z,-1.98
2023-03-02T05:46:54.475Z,-6.49
2023-03-02T05:47:54.433Z,-2.63
2023-03-02T05:48:54.422Z,-2.30
2023-03-02T05:49:54.426Z,-8.43
2023-03-02T05:50:54.393Z,1.88
2023-03-02T05:51:54.381Z,-1.98
2023-03-02T05:52:54.370Z,-5.21
2023-03-02T05:53:54.430Z,4.46
2023-03-02T05:54:54.343Z,4.46
2023-03-02T05:55:54.376Z,-1.66
2023-03-02T05:56:54.317Z,-7.46
2023-03-02T05:57:54.378Z,-1.34
2023-03-02T05:58:54.323Z,-1.66
2023-03-02T05:59:54.337Z,-1.66
2023-03-02T06:00:54.289Z,-2.30
2023-03-02T06:01:54.411Z,-1.98
2023-03-02T06:02:54.361Z,2.85
2023-03-02T06:03:54.310Z,-7.46
2023-03-02T06:04:54.250Z,-1.66
2023-03-02T06:05:54.279Z,-5.85
2023-03-02T06:06:54.231Z,-1.34
2023-03-02T06:07:54.237Z,1.88
2023-03-02T06:08:54.213Z,3.50
2023-03-02T06:09:54.226Z,-1.34
2023-03-02T06:10:54.194Z,-1.66
2023-03-02T06:11:54.217Z,5.75
2023-03-02T06:12:54.175Z,-5.21
2023-03-02T06:13:54.178Z,-1.66
2023-03-02T06:14:54.172Z,-1.34
2023-03-02T06:15:54.168Z,-1.66
2023-03-02T06:16:54.227Z,-8.11
2023-03-02T06:17:54.154Z,-5.21
2023-03-02T06:18:54.100Z,-0.69
2023-03-02T06:19:54.113Z,-1.02
2023-03-02T06:20:54.109Z,3.17
2023-03-02T06:21:54.105Z,-1.02
2023-03-02T06:22:54.058Z,-2.30
2023-03-02T06:23:54.064Z,-2.30
2023-03-02T06:24:54.051Z,-0.05
2023-03-02T06:25:54.046Z,-1.34
2023-03-02T06:26:54.023Z,-4.88
2023-03-02T06:27:54.037Z,-0.37
2023-03-02T06:28:54.270Z,-0.05
2023-03-02T06:29:54.023Z,-0.05
2023-03-02T06:30:53.999Z,-0.05
2023-03-02T06:31:54.172Z,-0.37
2023-03-02T06:32:54.101Z,-0.05
2023-03-02T06:33:53.984Z,0.27
2023-03-02T06:34:54.007Z,-6.49
2023-03-02T06:35:54.040Z,0.60
2023-03-02T06:36:53.924Z,0.92
2023-03-02T06:37:53.925Z,-4.24
2023-03-02T06:38:53.924Z,-8.11
2023-03-02T06:39:53.927Z,0.60
2023-03-02T06:40:53.916Z,0.60
2023-03-02T06:41:53.889Z,-16.48
2023-03-02T06:42:53.856Z,-2.95
2023-03-02T06:43:53.879Z,7.04
2023-03-02T06:44:53.854Z,0.60
2023-03-02T06:45:53.892Z,1.24
2023-03-02T06:46:53.839Z,0.92
2023-03-02T06:47:53.826Z,5.75
2023-03-02T06:48:53.812Z,3.82
2023-03-02T06:49:53.837Z,1.24
2023-03-02T06:50:53.786Z,6.40
2023-03-02T06:51:53.817Z,8.01
2023-03-02T06:52:53.757Z,1.56
2023-03-02T06:53:53.798Z,-2.63
2023-03-02T06:54:53.745Z,-5.21
2023-03-02T06:55:53.749Z,5.43
2023-03-02T06:56:53.718Z,7.04
2023-03-02T06:57:53.735Z,2.21
2023-03-02T06:58:52.690Z,3.82
2023-03-02T06:59:53.723Z,1.24
2023-03-02T07:00:53.709Z,6.40
2023-03-02T07:01:53.681Z,-6.82
2023-03-02T07:02:53.680Z,1.24
2023-03-02T07:03:53.678Z,1.24
2023-03-02T07:04:53.640Z,-2.30
2023-03-02T07:05:53.678Z,1.24
2023-03-02T07:06:53.604Z,2.21
2023-03-02T07:07:53.651Z,1.56
2023-03-02T07:08:53.588Z,2.21
2023-03-02T07:09:53.603Z,2.21
2023-03-02T07:10:53.578Z,6.40
2023-03-02T07:11:53.587Z,-1.98
2023-03-02T07:12:53.557Z,4.14
2023-03-02T07:13:53.559Z,2.85
2023-03-02T07:14:53.528Z,4.79
2023-03-02T07:15:53.541Z,5.43
2023-03-02T07:16:53.566Z,1.24
2023-03-02T07:17:53.510Z,6.07
2023-03-02T07:18:53.497Z,-0.69
2023-03-02T07:19:53.503Z,7.36
2023-03-02T07:20:53.460Z,7.69
2023-03-02T07:21:53.492Z,15.74
2023-03-02T07:22:53.448Z,8.01
2023-03-02T07:23:53.457Z,12.84
2023-03-02T07:24:53.415Z,8.01
2023-03-02T07:25:53.434Z,3.82
2023-03-02T07:26:53.398Z,8.65
2023-03-02T07:27:53.406Z,13.16
2023-03-02T07:28:53.396Z,8.97
2023-03-02T07:29:53.381Z,9.30
2023-03-02T07:30:53.562Z,9.94
2023-03-02T07:31:53.391Z,11.87
2023-03-02T07:32:53.337Z,9.30
2023-03-02T07:33:53.372Z,10.91
2023-03-02T07:34:53.340Z,5.43
2023-03-02T07:35:53.558Z,6.40
2023-03-02T07:36:53.300Z,11.87
2023-03-02T07:37:53.327Z,10.91
2023-03-02T07:38:53.282Z,7.36
2023-03-02T07:39:53.275Z,11.23
2023-03-02T07:40:53.249Z,16.06
2023-03-02T07:41:53.257Z,15.10
2023-03-02T07:42:53.225Z,11.87
2023-03-02T07:43:53.225Z,7.04
2023-03-02T07:44:53.243Z,11.23
2023-03-02T07:45:53.209Z,11.87
2023-03-02T07:46:53.375Z,12.20
2023-03-02T07:47:53.178Z,11.55
2023-03-02T07:48:53.201Z,11.87
2023-03-02T07:49:53.178Z,10.91
2023-03-02T07:50:53.171Z,17.03
2023-03-02T07:51:53.142Z,13.49
2023-03-02T07:52:53.157Z,15.74
2023-03-02T07:53:53.126Z,5.75
2023-03-02T07:54:53.135Z,19.93
2023-03-02T07:55:53.109Z,10.59
2023-03-02T07:56:53.118Z,13.16
2023-03-02T07:57:53.078Z,12.84
2023-03-02T07:58:53.101Z,8.33
2023-03-02T07:59:53.057Z,18.96
2023-03-02T08:00:53.076Z,13.16
2023-03-02T08:01:53.090Z,12.52
2023-03-02T08:02:53.130Z,22.83
2023-03-02T08:03:53.027Z,13.49
2023-03-02T08:04:53.039Z,13.49
2023-03-02T08:05:53.005Z,13.49
2023-03-02T08:06:53.016Z,8.65
2023-03-02T08:07:52.968Z,18.96
2023-03-02T08:08:52.983Z,14.78
2023-03-02T08:09:52.958Z,9.94
2023-03-02T08:10:52.951Z,12.20
2023-03-02T08:11:52.939Z,8.97
2023-03-02T08:12:52.946Z,14.78
2023-03-02T08:13:52.911Z,14.45
2023-03-02T08:14:52.937Z,14.45
2023-03-02T08:15:53.012Z,14.13
2023-03-02T08:16:52.898Z,14.13
2023-03-02T08:17:52.861Z,18.64
2023-03-02T08:18:52.875Z,14.45
2023-03-02T08:19:52.856Z,10.59
2023-03-02T08:20:52.863Z,20.25
2023-03-02T08:21:52.832Z,14.45
2023-03-02T08:22:52.860Z,15.10
2023-03-02T08:23:52.863Z,20.58
2023-03-02T08:24:52.810Z,10.91
2023-03-02T08:25:52.790Z,15.10
2023-03-02T08:26:52.785Z,15.42
2023-03-02T08:27:52.758Z,15.42
2023-03-02T08:28:52.774Z,16.39
2023-03-02T08:29:52.745Z,19.29
2023-03-02T08:30:52.743Z,17.03
2023-03-02T08:31:52.790Z,16.71
2023-03-02T08:32:52.733Z,17.68
2023-03-02T08:33:52.718Z,17.03
2023-03-02T08:34:52.718Z,16.06
2023-03-02T08:35:52.950Z,18.00
2023-03-02T08:36:52.672Z,16.39
2023-03-02T08:37:52.655Z,15.74
2023-03-02T08:38:52.677Z,17.35
2023-03-02T08:39:52.653Z,17.03
2023-03-02T08:40:52.654Z,17.03
2023-03-02T08:41:52.623Z,17.35
2023-03-02T08:42:52.618Z,10.26
2023-03-02T08:43:52.589Z,17.03
2023-03-02T08:44:52.604Z,17.03
2023-03-02T08:45:52.624Z,18.00
2023-03-02T08:46:52.579Z,19.29
2023-03-02T08:47:52.542Z,20.90
2023-03-02T08:48:52.566Z,16.06
2023-03-02T08:49:52.530Z,18.00
2023-03-02T08:50:52.537Z,16.06
2023-03-02T08:51:52.506Z,15.42
2023-03-02T08:52:52.509Z,11.87
2023-03-02T08:53:52.485Z,14.78
2023-03-02T08:54:52.565Z,7.36
2023-03-02T08:55:52.483Z,12.52
2023-03-02T08:56:52.476Z,12.20
2023-03-02T08:57:52.446Z,11.55
2023-03-02T08:58:52.462Z,12.84
2023-03-02T08:59:52.442Z,10.26
2023-03-02T09:00:52.486Z,9.30
2023-03-02T09:01:52.412Z,13.81
2023-03-02T09:02:52.398Z,1.88
2023-03-02T09:03:52.368Z,3.82
2023-03-02T09:04:52.425Z,8.01
2023-03-02T09:05:52.355Z,7.69
2023-03-02T09:06:52.363Z,1.24
2023-03-02T09:07:52.328Z,7.04
2023-03-02T09:08:52.348Z,7.69
2023-03-02T09:09:52.316Z,7.36
2023-03-02T09:10:52.319Z,7.69
2023-03-02T09:11:52.298Z,6.72
2023-03-02T09:12:52.299Z,7.04
2023-03-02T09:13:52.260Z,7.36
2023-03-02T09:14:52.276Z,7.04
2023-03-02T09:15:52.251Z,7.36
2023-03-02T09:16:52.303Z,2.53
2023-03-02T09:17:52.214Z,12.84
2023-03-02T09:18:52.247Z,7.36
2023-03-02T09:19:52.201Z,15.42
2023-03-02T09:20:52.201Z,9.62
2023-03-02T09:21:52.171Z,2.53
2023-03-02T09:22:52.197Z,7.36
2023-03-02T09:23:52.154Z,7.36
2023-03-02T09:24:52.161Z,7.69
2023-03-02T09:25:52.145Z,12.20
2023-03-02T09:26:52.141Z,12.20
2023-03-02T09:27:52.103Z,11.23
2023-03-02T09:28:52.120Z,7.69
2023-03-02T09:29:52.101Z,7.04
2023-03-02T09:30:52.117Z,1.56
2023-03-02T09:31:52.184Z,7.69
2023-03-02T09:32:52.311Z,7.04
2023-03-02T09:33:52.047Z,8.33
2023-03-02T09:34:52.048Z,14.78
2023-03-02T09:35:52.035Z,9.30
2023-03-02T09:36:52.041Z,5.75
2023-03-02T09:37:52.037Z,8.97
2023-03-02T09:38:52.006Z,7.04
2023-03-02T09:39:51.991Z,15.10
2023-03-02T09:40:52.067Z,18.32
2023-03-02T09:41:51.956Z,17.35
2023-03-02T09:42:51.976Z,18.64
2023-03-02T09:43:51.945Z,18.64
2023-03-02T09:44:51.953Z,19.61
2023-03-02T09:45:51.972Z,18.96
2023-03-02T09:46:51.931Z,18.96
2023-03-02T09:47:51.910Z,16.39
2023-03-02T09:48:51.917Z,19.93
2023-03-02T09:49:51.878Z,19.61
2023-03-02T09:50:51.905Z,19.61
2023-03-02T09:51:51.851Z,18.32
2023-03-02T09:52:51.873Z,20.25
2023-03-02T09:53:51.846Z,21.87
2023-03-02T09:54:51.889Z,20.25
2023-03-02T09:55:51.831Z,19.93
2023-03-02T09:56:51.835Z,20.25
2023-03-02T09:57:51.790Z,20.25
2023-03-02T09:58:51.810Z,15.42
2023-03-02T09:59:51.764Z,20.25
2023-03-02T10:00:51.774Z,19.61
2023-03-02T10:01:51.753Z,24.12
2023-03-02T10:02:51.809Z,24.77
2023-03-02T10:03:51.846Z,23.48
2023-03-02T10:04:51.801Z,24.44
2023-03-02T10:05:51.704Z,17.03
2023-03-02T10:06:51.717Z,19.93
2023-03-02T10:07:51.697Z,20.25
2023-03-02T10:08:51.707Z,19.93
2023-03-02T10:09:51.665Z,26.38
2023-03-02T10:10:51.664Z,20.58
2023-03-02T10:11:51.675Z,20.90
2023-03-02T10:12:51.666Z,20.90
2023-03-02T10:13:51.636Z,21.22
2023-03-02T10:14:51.621Z,23.48
2023-03-02T10:15:51.623Z,27.99
2023-03-02T10:16:51.613Z,17.03
2023-03-02T10:17:51.567Z,22.19
2023-03-02T10:18:51.709Z,21.54
2023-03-02T10:19:51.568Z,21.22
2023-03-02T10:20:51.569Z,28.31
2023-03-02T10:21:51.536Z,19.93
2023-03-02T10:22:51.611Z,21.22
2023-03-02T10:23:51.517Z,20.90
2023-03-02T10:24:51.522Z,21.54
2023-03-02T10:25:51.491Z,16.39
2023-03-02T10:26:51.502Z,27.02
2023-03-02T10:27:51.515Z,20.58
2023-03-02T10:28:51.494Z,24.77
2023-03-02T10:29:51.447Z,21.22
2023-03-02T10:30:51.525Z,20.90
2023-03-02T10:31:51.459Z,14.13
2023-03-02T10:32:51.427Z,28.63
2023-03-02T10:33:51.413Z,20.90
2023-03-02T10:34:51.432Z,22.51
2023-03-02T10:35:51.392Z,22.19
2023-03-02T10:36:51.383Z,20.25
2023-03-02T10:37:51.474Z,18.64
2023-03-02T10:38:51.357Z,17.68
2023-03-02T10:39:51.392Z,17.03
2023-03-02T10:40:51.335Z,13.16
2023-03-02T10:41:51.350Z,16.06
2023-03-02T10:42:51.309Z,19.93
2023-03-02T10:43:51.308Z,16.71
2023-03-02T10:44:51.300Z,17.03
2023-03-02T10:45:51.328Z,18.32
2023-03-02T10:46:51.306Z,14.45
2023-03-02T10:47:51.284Z,18.96
2023-03-02T10:48:51.250Z,23.48
2023-03-02T10:49:51.298Z,23.48
2023-03-02T10:50:51.233Z,25.41
2023-03-02T10:51:51.236Z,18.96
2023-03-02T10:52:59.564Z,15.74
2023-03-02T10:53:51.220Z,18.64
2023-03-02T10:54:51.184Z,12.20
2023-03-02T10:55:51.212Z,14.45
2023-03-02T10:56:51.174Z,20.25
2023-03-02T10:57:51.170Z,21.54
2023-03-02T10:58:51.157Z,18.64
2023-03-02T10:59:51.155Z,22.51
2023-03-02T11:00:51.125Z,22.51
2023-03-02T11:01:51.151Z,23.15
2023-03-02T11:02:51.112Z,18.64
2023-03-02T11:03:51.114Z,23.80
2023-03-02T11:04:51.101Z,18.64
2023-03-02T11:05:51.092Z,29.60
2023-03-02T11:06:52.603Z,23.80
2023-03-02T11:07:51.076Z,29.60
2023-03-02T11:08:51.065Z,30.89
2023-03-02T11:09:51.062Z,24.44
2023-03-02T11:10:51.024Z,24.12
2023-03-02T11:11:51.114Z,24.77
2023-03-02T11:12:51.013Z,25.09
2023-03-02T11:13:51.078Z,27.67
2023-03-02T11:14:50.979Z,24.44
2023-03-02T11:15:51.044Z,24.44
2023-03-02T11:16:50.955Z,24.77
2023-03-02T11:17:50.955Z,18.64
2023-03-02T11:18:50.934Z,24.77
2023-03-02T11:19:50.949Z,25.41
2023-03-02T11:20:50.911Z,21.54
2023-03-02T11:21:50.914Z,32.50
2023-03-02T11:22:50.890Z,26.05
2023-03-02T11:23:50.903Z,26.70
2023-03-02T11:24:50.865Z,26.70
2023-03-02T11:25:50.866Z,23.48
2023-03-02T11:26:50.856Z,25.41
2023-03-02T11:27:50.846Z,26.70
2023-03-02T11:28:50.828Z,26.05
2023-03-02T11:29:50.836Z,22.51
2023-03-02T11:30:50.805Z,32.18
2023-03-02T11:31:50.965Z,25.73
2023-03-02T11:32:50.828Z,27.02
2023-03-02T11:33:50.840Z,26.70
2023-03-02T11:34:50.774Z,23.15
2023-03-02T11:35:50.843Z,28.96
2023-03-02T11:36:50.741Z,34.11
2023-03-02T11:37:50.750Z,26.05
2023-03-02T11:38:50.726Z,26.05
2023-03-02T11:39:55.880Z,18.64
2023-03-02T11:40:50.701Z,25.41
2023-03-02T11:41:50.747Z,26.38
2023-03-02T11:42:50.669Z,26.38
2023-03-02T11:43:50.677Z,26.38
2023-03-02T11:44:50.651Z,28.63
2023-03-02T11:45:50.696Z,21.87
2023-03-02T11:46:50.710Z,26.05
2023-03-02T11:47:57.628Z,25.73
2023-03-02T11:48:50.615Z,25.73
2023-03-02T11:49:50.633Z,26.70
2023-03-02T11:50:50.585Z,27.02
2023-03-02T11:51:58.121Z,23.15
2023-03-02T11:52:50.581Z,18.96
2023-03-02T11:53:50.648Z,30.89
2023-03-02T11:54:50.579Z,26.38
2023-03-02T11:55:50.565Z,29.92
2023-03-02T11:56:50.525Z,25.73
2023-03-02T11:57:50.530Z,29.92
2023-03-02T11:58:50.505Z,20.90
2023-03-02T11:59:50.506Z,20.90
2023-03-02T12:00:50.554Z,26.05
2023-03-02T12:01:50.510Z,19.93
2023-03-02T12:02:50.462Z,22.51
2023-03-02T12:03:50.481Z,22.83
2023-03-02T12:04:50.436Z,26.05
2023-03-02T12:05:50.478Z,28.96
2023-03-02T12:06:50.424Z,26.05
2023-03-02T12:07:50.423Z,25.73
2023-03-02T12:08:50.400Z,26.38
2023-03-02T12:09:50.408Z,23.80
2023-03-02T12:10:50.386Z,26.70
2023-03-02T12:11:50.413Z,22.19
2023-03-02T12:12:50.366Z,24.77
2023-03-02T12:13:50.387Z,26.70
2023-03-02T12:14:50.344Z,27.34
2023-03-02T12:15:50.366Z,27.02
2023-03-02T12:16:50.412Z,20.90
2023-03-02T12:17:50.362Z,26.38
2023-03-02T12:18:50.295Z,28.63
2023-03-02T12:19:50.351Z,25.73
2023-03-02T12:20:50.273Z,29.92
2023-03-02T12:21:50.314Z,26.38
2023-03-02T12:22:50.284Z,26.38
2023-03-02T12:23:50.274Z,26.70
2023-03-02T12:24:50.245Z,26.70
2023-03-02T12:25:50.238Z,27.02
2023-03-02T12:26:50.258Z,26.70
2023-03-02T12:27:50.251Z,22.19
2023-03-02T12:28:50.226Z,26.38
2023-03-02T12:29:50.214Z,26.05
2023-03-02T12:30:50.173Z,27.02
2023-03-02T12:31:50.240Z,26.38
2023-03-02T12:32:50.171Z,27.02
2023-03-02T12:33:50.180Z,26.38
2023-03-02T12:34:50.147Z,22.19
2023-03-02T12:35:50.145Z,26.70
2023-03-02T12:36:50.135Z,22.19
2023-03-02T12:37:50.133Z,27.34
2023-03-02T12:38:50.112Z,23.80
2023-03-02T12:39:50.099Z,27.02
2023-03-02T12:40:50.069Z,27.67
2023-03-02T12:41:50.118Z,28.63
2023-03-02T12:42:50.070Z,27.34
2023-03-02T12:43:50.085Z,27.34
2023-03-02T12:44:50.102Z,22.51
2023-03-02T12:45:50.080Z,27.34
2023-03-02T12:46:50.006Z,32.50
2023-03-02T12:47:50.341Z,27.02
2023-03-02T12:48:50.487Z,23.80
2023-03-02T12:49:50.005Z,23.48
2023-03-02T12:50:49.966Z,25.41
2023-03-02T12:51:50.069Z,32.82
2023-03-02T12:52:49.951Z,27.67
2023-03-02T12:53:49.949Z,27.02
2023-03-02T12:54:49.952Z,21.54
2023-03-02T12:55:50.028Z,26.05
2023-03-02T12:56:49.899Z,26.38
2023-03-02T12:57:49.916Z,26.05
2023-03-02T12:58:49.878Z,26.70
2023-03-02T12:59:49.905Z,25.09
2023-03-02T13:00:49.880Z,27.02